Time;durP1;ratioP1;P1;durP2;ratioP2;P2;SDS_P1;SDS_P2;PMS_P1;PMS_P2;Temp;Humidity;BMP_temperature;BMP_pressure;BME280_temperature;BME280_humidity;BME280_pressure;Samples;Min_cycle;Max_cycle;Signal;HPM_P1;HPM_P2
2023/07/07 00:01:07;;;;;;;1.00;0.90;;;17.10;71.30;;;;;;5071647;28;20063;-66
2023/07/07 00:03:33;;;;;;;1.23;1.13;;;17.10;71.40;;;;;;5075836;28;20029;-66
2023/07/07 00:05:59;;;;;;;0.70;0.68;;;17.10;71.50;;;;;;5080162;28;20642;-70
2023/07/07 00:08:25;;;;;;;0.85;0.70;;;17.00;71.40;;;;;;5076041;28;20020;-71
2023/07/07 00:10:51;;;;;;;0.88;0.88;;;17.00;71.40;;;;;;5069716;28;20383;-71
2023/07/07 00:13:17;;;;;;;2.25;0.75;;;17.00;71.50;;;;;;5075798;28;20024;-71
2023/07/07 00:15:44;;;;;;;0.70;0.70;;;17.00;71.60;;;;;;5084919;28;20024;-71
2023/07/07 00:18:14;;;;;;;2.33;1.25;;;16.90;71.60;;;;;;5074982;28;20024;-71
2023/07/07 00:20:41;;;;;;;1.17;1.08;;;16.90;71.70;;;;;;5077776;28;20036;-71
2023/07/07 00:23:07;;;;;;;1.17;1.08;;;16.90;72.50;;;;;;5073912;28;20051;-71
2023/07/07 00:25:33;;;;;;;1.58;1.08;;;16.90;72.10;;;;;;5080147;28;20482;-71
2023/07/07 00:27:58;;;;;;;0.95;0.90;;;16.80;72.20;;;;;;5079711;28;20032;-71
2023/07/07 00:30:24;;;;;;;1.02;0.95;;;16.80;72.10;;;;;;5077016;28;20037;-71
2023/07/07 00:32:50;;;;;;;2.03;1.13;;;16.80;72.10;;;;;;5080519;28;20496;-71
2023/07/07 00:35:15;;;;;;;0.98;0.77;;;16.80;72.20;;;;;;5083715;28;20395;-71
2023/07/07 00:37:43;;;;;;;1.50;0.85;;;16.80;72.30;;;;;;5074298;28;20442;-71
2023/07/07 00:40:09;;;;;;;2.25;1.10;;;16.80;72.40;;;;;;5078593;28;20024;-71
2023/07/07 00:42:35;;;;;;;1.38;0.82;;;16.80;72.70;;;;;;5079775;28;20069;-71
2023/07/07 00:45:16;;;;;;;1.55;1.08;;;16.80;72.60;;;;;;5074290;28;20029;-71
2023/07/07 00:47:44;;;;;;;1.80;1.05;;;16.80;72.40;;;;;;5079742;28;20035;-71
2023/07/07 00:50:12;;;;;;;0.73;0.73;;;16.70;72.50;;;;;;5081017;28;20024;-71
2023/07/07 00:52:41;;;;;;;1.50;1.40;;;16.70;72.60;;;;;;5075762;28;20513;-71
2023/07/07 00:55:12;;;;;;;0.82;0.80;;;16.70;72.60;;;;;;5077630;28;20077;-71
2023/07/07 00:57:38;;;;;;;1.20;0.85;;;16.70;72.60;;;;;;5074442;28;20097;-71
2023/07/07 01:00:05;;;;;;;1.83;1.35;;;16.60;72.60;;;;;;5074100;28;20476;-70
2023/07/07 01:02:30;;;;;;;1.15;0.80;;;16.60;72.50;;;;;;5075655;28;20127;-71
2023/07/07 01:05:00;;;;;;;1.23;0.93;;;16.60;72.70;;;;;;5079757;28;20104;-70
2023/07/07 01:07:34;;;;;;;1.48;0.93;;;16.60;72.80;;;;;;5080099;28;20020;-73
2023/07/07 01:10:00;;;;;;;1.42;1.10;;;16.60;72.80;;;;;;5074770;28;20036;-74
2023/07/07 01:12:25;;;;;;;1.48;1.27;;;16.50;72.80;;;;;;5073221;28;20372;-72
2023/07/07 01:14:52;;;;;;;1.83;1.17;;;16.50;72.90;;;;;;5073432;28;20419;-72
2023/07/07 01:17:39;;;;;;;1.50;1.23;;;16.50;72.90;;;;;;5071883;28;20036;-67
2023/07/07 01:20:16;;;;;;;1.17;0.75;;;16.50;73.10;;;;;;5077892;28;20565;-68
2023/07/07 01:23:01;;;;;;;1.00;0.90;;;16.50;73.00;;;;;;5073262;28;20075;-67
2023/07/07 01:25:55;;;;;;;0.75;0.70;;;16.40;73.10;;;;;;5076509;28;20106;-68
2023/07/07 01:28:42;;;;;;;1.25;1.00;;;16.40;73.20;;;;;;5081154;28;20138;-68
2023/07/07 01:31:17;;;;;;;1.17;0.93;;;16.30;73.30;;;;;;5076950;28;20102;-68
2023/07/07 01:33:45;;;;;;;0.95;0.85;;;16.30;73.40;;;;;;5070937;28;20487;-68
2023/07/07 01:36:11;;;;;;;2.25;0.80;;;16.30;73.60;;;;;;5072040;28;20060;-66
2023/07/07 01:38:38;;;;;;;1.58;1.08;;;16.30;73.60;;;;;;5072355;28;20070;-67
2023/07/07 01:41:29;;;;;;;1.55;1.10;;;16.30;73.60;;;;;;5079490;28;20052;-67
2023/07/07 01:44:01;;;;;;;2.35;1.35;;;16.20;73.50;;;;;;5045500;28;20165;-67
2023/07/07 01:46:29;;;;;;;2.22;1.38;;;16.20;73.60;;;;;;5077915;28;20468;-71
2023/07/07 01:48:57;;;;;;;3.65;0.85;;;16.20;73.60;;;;;;5075664;28;20037;-71
2023/07/07 01:51:30;;;;;;;1.98;1.20;;;16.20;73.60;;;;;;5072331;28;20040;-71
2023/07/07 01:53:58;;;;;;;2.00;0.82;;;16.20;73.60;;;;;;5076101;28;20027;-70
2023/07/07 01:56:28;;;;;;;1.35;1.17;;;16.20;73.60;;;;;;5074571;28;20051;-71
2023/07/07 01:58:54;;;;;;;1.00;0.93;;;16.10;73.70;;;;;;5075957;28;20048;-71
2023/07/07 02:01:20;;;;;;;1.77;1.20;;;16.10;73.70;;;;;;5080878;28;20032;-71
2023/07/07 02:03:46;;;;;;;1.08;0.93;;;16.10;73.70;;;;;;5078876;28;20028;-71
2023/07/07 02:06:11;;;;;;;1.98;1.38;;;16.10;73.80;;;;;;5069643;28;20036;-71
2023/07/07 02:08:37;;;;;;;1.17;0.85;;;16.10;73.80;;;;;;5066600;28;20086;-71
2023/07/07 02:11:03;;;;;;;2.65;1.23;;;16.00;73.70;;;;;;5072270;28;20117;-71
2023/07/07 02:13:29;;;;;;;2.08;1.00;;;16.00;73.80;;;;;;5075340;28;20032;-71
2023/07/07 02:15:54;;;;;;;1.35;1.25;;;16.00;73.80;;;;;;5078823;28;20044;-70
2023/07/07 02:18:20;;;;;;;0.98;0.80;;;16.00;73.90;;;;;;5086336;28;20032;-71
2023/07/07 02:20:46;;;;;;;1.05;1.00;;;15.90;73.90;;;;;;5083693;28;20028;-71
2023/07/07 02:23:12;;;;;;;1.40;1.00;;;15.90;74.00;;;;;;5077749;28;20028;-71
2023/07/07 02:25:37;;;;;;;5.43;1.17;;;15.90;74.00;;;;;;5071842;28;20426;-71
2023/07/07 02:28:03;;;;;;;2.53;1.05;;;15.90;74.00;;;;;;5091432;28;20041;-66
2023/07/07 02:30:29;;;;;;;2.58;1.23;;;15.90;74.10;;;;;;5083256;28;20575;-66
2023/07/07 02:32:55;;;;;;;2.05;1.30;;;15.80;74.20;;;;;;5082089;28;20107;-66
2023/07/07 02:35:21;;;;;;;1.30;1.20;;;15.80;74.30;;;;;;5084859;28;20159;-67
2023/07/07 02:37:46;;;;;;;1.00;0.90;;;15.80;74.50;;;;;;5077680;28;20043;-67
2023/07/07 02:40:12;;;;;;;1.00;0.60;;;15.70;74.50;;;;;;5083867;28;20046;-66
2023/07/07 02:42:38;;;;;;;1.75;1.20;;;15.70;74.40;;;;;;5075400;28;20021;-67
2023/07/07 02:45:04;;;;;;;0.98;0.90;;;15.70;75.00;;;;;;5079288;28;20469;-66
2023/07/07 02:47:29;;;;;;;1.05;0.80;;;15.70;74.30;;;;;;5073058;28;20041;-66
2023/07/07 02:49:55;;;;;;;2.78;1.38;;;15.70;74.30;;;;;;5083405;28;20028;-67
2023/07/07 02:52:21;;;;;;;1.17;1.00;;;15.70;74.40;;;;;;5072849;28;20398;-67
2023/07/07 02:54:46;;;;;;;1.95;1.33;;;15.70;74.30;;;;;;5080559;28;20043;-66
2023/07/07 02:57:12;;;;;;;2.00;1.27;;;15.70;74.40;;;;;;5077499;28;20101;-67
2023/07/07 02:59:38;;;;;;;0.90;0.90;;;15.70;74.50;;;;;;5077987;28;20028;-67
2023/07/07 03:02:04;;;;;;;2.97;0.88;;;15.70;74.50;;;;;;5073381;28;20112;-68
2023/07/07 03:04:30;;;;;;;1.75;1.13;;;15.60;74.50;;;;;;5058838;28;20033;-68
2023/07/07 03:06:55;;;;;;;3.40;1.30;;;15.60;74.50;;;;;;5054383;28;20443;-67
2023/07/07 03:09:21;;;;;;;2.05;1.20;;;15.60;74.50;;;;;;5067452;28;20094;-67
2023/07/07 03:11:47;;;;;;;1.02;0.93;;;15.60;74.50;;;;;;5076763;28;20031;-67
2023/07/07 03:14:15;;;;;;;1.38;1.27;;;15.60;74.50;;;;;;5075008;28;20032;-67
2023/07/07 03:16:46;;;;;;;1.77;1.17;;;15.60;74.60;;;;;;5068132;28;20398;-67
2023/07/07 03:19:12;;;;;;;1.38;1.25;;;15.50;74.60;;;;;;5070285;28;20052;-68
2023/07/07 03:21:38;;;;;;;1.50;1.17;;;15.50;74.60;;;;;;5069831;28;20411;-67
2023/07/07 03:24:04;;;;;;;4.53;1.63;;;15.50;74.80;;;;;;5067116;28;20028;-71
2023/07/07 03:26:30;;;;;;;1.77;1.15;;;15.50;74.90;;;;;;5073816;28;20066;-68
2023/07/07 03:28:56;;;;;;;2.83;1.00;;;15.50;74.90;;;;;;5071374;28;20107;-68
2023/07/07 03:31:27;;;;;;;2.58;1.30;;;15.50;74.90;;;;;;5076474;28;20478;-68
2023/07/07 03:33:56;;;;;;;1.60;1.40;;;15.50;74.90;;;;;;5077849;28;20028;-69
2023/07/07 03:36:25;;;;;;;1.10;0.98;;;15.50;74.90;;;;;;5071880;28;20021;-72
2023/07/07 03:38:51;;;;;;;1.50;0.98;;;15.50;74.80;;;;;;5076336;28;20024;-68
2023/07/07 03:41:21;;;;;;;1.20;1.05;;;15.50;74.90;;;;;;5071404;28;20033;-68
2023/07/07 03:43:47;;;;;;;1.88;1.27;;;15.40;75.00;;;;;;5078308;28;20129;-68
2023/07/07 03:46:18;;;;;;;1.08;0.98;;;15.40;75.00;;;;;;5077401;28;20021;-68
2023/07/07 03:48:45;;;;;;;1.35;1.15;;;15.40;75.00;;;;;;5069168;28;20391;-67
2023/07/07 03:51:12;;;;;;;1.33;1.05;;;15.40;75.60;;;;;;5070019;28;20064;-68
2023/07/07 03:53:39;;;;;;;1.65;1.33;;;15.40;75.10;;;;;;5095486;28;20483;-68
2023/07/07 03:56:05;;;;;;;1.30;1.20;;;15.40;75.10;;;;;;5075937;28;20056;-68
2023/07/07 03:58:33;;;;;;;1.38;0.98;;;15.40;75.10;;;;;;5070786;28;20052;-68
2023/07/07 04:01:03;;;;;;;0.90;0.80;;;15.40;75.00;;;;;;5072660;28;20393;-72
2023/07/07 04:03:30;;;;;;;1.30;1.20;;;15.40;75.00;;;;;;5073515;28;20120;-72
2023/07/07 04:05:56;;;;;;;1.23;0.82;;;15.40;75.10;;;;;;5075821;28;20043;-67
2023/07/07 04:08:23;;;;;;;1.52;1.20;;;15.40;75.10;;;;;;5070042;28;20021;-68
2023/07/07 04:11:00;;;;;;;1.85;1.25;;;15.50;75.30;;;;;;5071693;28;20029;-68
2023/07/07 04:13:30;;;;;;;1.75;1.30;;;15.50;75.40;;;;;;5060514;28;20028;-68
2023/07/07 04:16:20;;;;;;;0.95;0.90;;;15.50;75.50;;;;;;5078432;28;20422;-68
2023/07/07 04:18:47;;;;;;;1.20;1.10;;;15.50;75.60;;;;;;5066874;28;20119;-68
2023/07/07 04:21:20;;;;;;;1.90;1.20;;;15.50;75.80;;;;;;5070479;28;20503;-68
2023/07/07 04:23:47;;;;;;;3.30;1.33;;;15.50;75.90;;;;;;5070324;28;20016;-68
2023/07/07 04:26:13;;;;;;;2.78;1.02;;;15.60;76.10;;;;;;5070091;28;20395;-68
2023/07/07 04:28:40;;;;;;;1.45;1.20;;;15.60;76.00;;;;;;5051658;28;20511;-68
2023/07/07 04:31:09;;;;;;;1.65;1.00;;;15.70;76.10;;;;;;5081927;28;20017;-68
2023/07/07 04:33:35;;;;;;;2.00;1.35;;;15.70;76.20;;;;;;5077294;28;20379;-72
2023/07/07 04:36:04;;;;;;;2.63;1.42;;;15.80;76.30;;;;;;5076688;28;20020;-72
2023/07/07 04:38:30;;;;;;;1.38;1.08;;;15.90;76.40;;;;;;5079523;28;20028;-73
2023/07/07 04:41:09;;;;;;;1.65;1.27;;;15.90;76.40;;;;;;5077541;28;20573;-73
2023/07/07 04:43:39;;;;;;;1.60;1.50;;;16.00;76.40;;;;;;5073752;28;20420;-72
2023/07/07 04:46:06;;;;;;;2.63;1.33;;;16.10;76.40;;;;;;5075346;28;20024;-72
2023/07/07 04:48:32;;;;;;;1.65;1.08;;;16.10;76.30;;;;;;5077618;28;20032;-73
2023/07/07 04:51:03;;;;;;;1.38;0.95;;;16.20;76.30;;;;;;5074232;28;20036;-72
2023/07/07 04:53:30;;;;;;;2.42;1.08;;;16.30;76.40;;;;;;5073164;28;20469;-73
2023/07/07 04:55:57;;;;;;;1.55;1.00;;;16.40;76.40;;;;;;5074196;28;20055;-72
2023/07/07 04:58:25;;;;;;;1.30;1.15;;;16.50;76.50;;;;;;5065458;28;20055;-72
2023/07/07 05:00:52;;;;;;;3.75;1.25;;;16.50;76.50;;;;;;5076822;28;20097;-72
2023/07/07 05:03:18;;;;;;;4.10;0.90;;;16.70;76.60;;;;;;5077457;28;20063;-72
2023/07/07 05:05:43;;;;;;;3.13;1.35;;;16.70;76.50;;;;;;5076661;28;20440;-72
2023/07/07 05:08:09;;;;;;;1.20;1.10;;;16.80;76.50;;;;;;5067483;28;20544;-72
2023/07/07 05:10:35;;;;;;;1.27;1.17;;;16.80;76.50;;;;;;5073966;28;20448;-72
2023/07/07 05:13:01;;;;;;;3.25;1.38;;;16.90;76.40;;;;;;5074518;28;20030;-72
2023/07/07 05:15:26;;;;;;;2.40;1.58;;;17.00;76.40;;;;;;5069690;28;20110;-72
2023/07/07 05:17:52;;;;;;;1.27;0.95;;;17.00;76.40;;;;;;5070382;28;20064;-68
2023/07/07 05:20:18;;;;;;;1.83;1.20;;;17.10;76.30;;;;;;5072959;28;20039;-68
2023/07/07 05:22:43;;;;;;;3.40;1.10;;;17.20;76.30;;;;;;5078985;28;20024;-68
2023/07/07 05:25:09;;;;;;;1.35;1.02;;;17.30;76.20;;;;;;5078795;28;20032;-68
2023/07/07 05:27:35;;;;;;;1.23;0.90;;;17.40;76.00;;;;;;5078329;28;20033;-67
2023/07/07 05:30:01;;;;;;;2.80;1.13;;;17.50;75.80;;;;;;5063246;28;20055;-67
2023/07/07 05:32:26;;;;;;;1.10;1.00;;;17.60;75.60;;;;;;5077461;28;20052;-68
2023/07/07 05:34:52;;;;;;;1.45;1.00;;;17.70;75.40;;;;;;5079779;28;20093;-72
2023/07/07 05:37:18;;;;;;;1.17;0.82;;;17.80;75.30;;;;;;5082018;28;20097;-72
2023/07/07 05:39:47;;;;;;;1.70;1.33;;;17.80;75.10;;;;;;5085017;28;20062;-72
2023/07/07 05:42:13;;;;;;;1.15;0.98;;;17.90;75.00;;;;;;5079545;28;20032;-67
2023/07/07 05:44:39;;;;;;;0.85;0.82;;;18.00;74.90;;;;;;5078923;28;20035;-67
2023/07/07 05:47:04;;;;;;;1.20;1.10;;;18.10;74.70;;;;;;5075786;28;20033;-67
2023/07/07 05:49:30;;;;;;;4.72;0.93;;;18.20;74.50;;;;;;5072410;28;20045;-67
2023/07/07 05:51:56;;;;;;;1.25;1.13;;;18.30;74.40;;;;;;5073888;28;20029;-67
2023/07/07 05:54:22;;;;;;;1.20;0.77;;;18.40;74.10;;;;;;5064407;28;20118;-71
2023/07/07 05:56:49;;;;;;;2.53;1.50;;;18.40;74.00;;;;;;5078308;28;20055;-69
2023/07/07 05:59:15;;;;;;;0.95;0.93;;;18.50;74.00;;;;;;5076035;28;20047;-70
2023/07/07 06:01:41;;;;;;;2.17;1.38;;;18.60;73.90;;;;;;5080763;28;20037;-66
2023/07/07 06:04:06;;;;;;;1.65;1.30;;;18.60;73.70;;;;;;5057048;28;20390;-66
2023/07/07 06:06:32;;;;;;;1.65;1.13;;;18.70;73.70;;;;;;5070095;28;20039;-66
2023/07/07 06:08:58;;;;;;;1.27;1.00;;;18.70;73.70;;;;;;5083578;28;20028;-66
2023/07/07 06:11:23;;;;;;;1.52;1.10;;;18.70;73.70;;;;;;5074678;28;20403;-66
2023/07/07 06:13:49;;;;;;;1.15;1.00;;;18.80;73.40;;;;;;5075648;28;20112;-66
2023/07/07 06:16:17;;;;;;;1.50;1.15;;;18.90;73.20;;;;;;5082796;28;20036;-66
2023/07/07 06:18:42;;;;;;;1.10;1.00;;;19.00;73.00;;;;;;5069551;28;20102;-66
2023/07/07 06:21:08;;;;;;;1.10;0.80;;;19.10;72.80;;;;;;5073866;28;20439;-66
2023/07/07 06:23:34;;;;;;;1.48;1.35;;;19.20;72.60;;;;;;5072519;28;20032;-66
2023/07/07 06:26:00;;;;;;;1.52;0.75;;;19.30;72.40;;;;;;5073668;28;20036;-66
2023/07/07 06:28:26;;;;;;;1.75;1.00;;;19.40;72.10;;;;;;5079651;28;20235;-66
2023/07/07 06:30:52;;;;;;;1.48;1.00;;;19.50;71.90;;;;;;5082106;28;20115;-66
2023/07/07 06:33:19;;;;;;;2.13;1.48;;;19.50;71.70;;;;;;5079754;28;20028;-66
2023/07/07 06:35:45;;;;;;;1.85;0.98;;;19.60;71.60;;;;;;5077208;28;20089;-66
2023/07/07 06:38:11;;;;;;;2.95;1.40;;;19.70;71.50;;;;;;5070990;28;20032;-66
2023/07/07 06:40:37;;;;;;;1.52;1.42;;;19.70;71.30;;;;;;5077776;28;20051;-71
2023/07/07 06:43:03;;;;;;;2.15;0.95;;;19.80;71.20;;;;;;5075729;28;20024;-65
2023/07/07 06:45:29;;;;;;;0.90;0.88;;;19.90;71.00;;;;;;5079296;28;20024;-66
2023/07/07 06:47:55;;;;;;;1.65;1.40;;;19.90;70.80;;;;;;5078379;28;20028;-67
2023/07/07 06:50:29;;;;;;;1.08;0.98;;;20.00;70.70;;;;;;5073918;28;20463;-66
2023/07/07 06:52:55;;;;;;;1.40;1.20;;;20.10;70.60;;;;;;5076591;28;20036;-66
2023/07/07 06:55:21;;;;;;;2.10;1.15;;;20.10;70.40;;;;;;5075760;28;20105;-66
2023/07/07 06:57:47;;;;;;;2.70;0.85;;;20.20;70.30;;;;;;5071594;28;20039;-67
2023/07/07 07:00:13;;;;;;;1.27;1.15;;;20.30;70.20;;;;;;5077597;28;20252;-66
2023/07/07 07:02:39;;;;;;;1.92;0.98;;;20.40;70.00;;;;;;5071961;28;20032;-66
2023/07/07 07:05:05;;;;;;;1.20;1.10;;;20.50;69.90;;;;;;5081289;28;20016;-71
2023/07/07 07:07:31;;;;;;;1.63;1.20;;;20.60;69.80;;;;;;5078340;28;20040;-70
2023/07/07 07:09:57;;;;;;;1.33;1.17;;;20.60;69.60;;;;;;5078906;28;20020;-67
2023/07/07 07:12:23;;;;;;;1.35;1.10;;;20.70;69.20;;;;;;5070684;28;20058;-67
2023/07/07 07:14:49;;;;;;;1.75;1.10;;;20.80;69.00;;;;;;5071310;28;20020;-67
2023/07/07 07:17:15;;;;;;;1.60;1.50;;;20.90;68.90;;;;;;5075725;28;20094;-67
2023/07/07 07:19:40;;;;;;;2.55;1.65;;;21.00;68.70;;;;;;5077668;28;20028;-68
2023/07/07 07:22:06;;;;;;;1.30;1.20;;;21.10;68.60;;;;;;5074719;28;20043;-67
2023/07/07 07:24:31;;;;;;;1.42;1.08;;;21.10;68.60;;;;;;5073996;28;20021;-67
2023/07/07 07:26:57;;;;;;;1.55;1.10;;;21.20;69.20;;;;;;5072149;28;20062;-67
2023/07/07 07:29:23;;;;;;;1.75;1.13;;;21.20;68.40;;;;;;5078971;28;20032;-67
2023/07/07 07:31:48;;;;;;;2.13;1.05;;;21.30;68.20;;;;;;5077017;28;20031;-67
2023/07/07 07:34:27;;;;;;;1.02;1.02;;;21.40;68.00;;;;;;5075122;28;20380;-68
2023/07/07 07:36:54;;;;;;;2.05;1.10;;;21.60;67.80;;;;;;5070837;28;20025;-67
2023/07/07 07:39:21;;;;;;;1.17;0.90;;;21.70;67.60;;;;;;5077264;28;20380;-67
2023/07/07 07:41:48;;;;;;;2.80;1.52;;;21.80;67.50;;;;;;5074843;28;20033;-67
2023/07/07 07:44:15;;;;;;;1.95;1.65;;;21.90;66.40;;;;;;5074767;28;20035;-67
2023/07/07 07:46:42;;;;;;;1.45;0.93;;;22.00;66.40;;;;;;5083454;28;20031;-67
2023/07/07 07:49:09;;;;;;;1.08;0.80;;;22.10;66.30;;;;;;5066568;28;20032;-67
2023/07/07 07:51:38;;;;;;;0.80;0.75;;;22.20;65.90;;;;;;5072310;28;20032;-67
2023/07/07 07:54:06;;;;;;;1.10;0.55;;;22.30;65.20;;;;;;5071421;28;20119;-66
2023/07/07 07:56:32;;;;;;;0.65;0.65;;;22.40;64.80;;;;;;5075862;28;20530;-66
2023/07/07 07:58:58;;;;;;;3.72;1.05;;;22.50;64.40;;;;;;5074783;28;20156;-67
2023/07/07 08:01:24;;;;;;;0.80;0.73;;;22.50;64.10;;;;;;5071708;28;20143;-68
2023/07/07 08:03:50;;;;;;;2.78;0.93;;;22.60;63.70;;;;;;5068622;28;20043;-67
2023/07/07 08:06:15;;;;;;;0.80;0.77;;;22.80;63.20;;;;;;5069502;28;20029;-67
2023/07/07 08:08:41;;;;;;;1.20;0.70;;;22.80;63.40;;;;;;5080950;28;20028;-66
2023/07/07 08:11:12;;;;;;;1.40;0.95;;;22.90;62.40;;;;;;5075730;28;20036;-66
2023/07/07 08:13:38;;;;;;;0.90;0.83;;;23.00;61.70;;;;;;5074955;28;20040;-67
2023/07/07 08:16:04;;;;;;;1.88;0.90;;;23.10;61.50;;;;;;5072589;28;20403;-67
2023/07/07 08:18:30;;;;;;;1.33;1.20;;;23.10;61.40;;;;;;5070153;28;20493;-70
2023/07/07 08:20:55;;;;;;;1.20;0.75;;;23.20;61.30;;;;;;5068099;28;20101;-67
2023/07/07 08:23:21;;;;;;;2.33;0.73;;;23.30;61.10;;;;;;5076827;28;20036;-70
2023/07/07 08:25:48;;;;;;;3.38;1.02;;;23.40;60.40;;;;;;5074992;28;20431;-73
2023/07/07 08:28:14;;;;;;;2.78;0.95;;;23.50;60.10;;;;;;5083951;28;20034;-66
2023/07/07 08:30:40;;;;;;;1.05;0.68;;;23.60;59.90;;;;;;5071460;28;20032;-70
2023/07/07 08:33:05;;;;;;;0.43;0.43;;;23.70;59.40;;;;;;5075533;28;20032;-70
2023/07/07 08:35:31;;;;;;;1.00;0.90;;;23.90;59.50;;;;;;5077009;28;20124;-70
2023/07/07 08:37:57;;;;;;;1.17;0.60;;;24.00;58.70;;;;;;5076491;28;20036;-64
2023/07/07 08:40:28;;;;;;;0.60;0.60;;;24.00;58.50;;;;;;5075786;28;20024;-70
2023/07/07 08:42:53;;;;;;;0.87;0.60;;;24.20;58.30;;;;;;5072515;28;20028;-70
2023/07/07 08:45:21;;;;;;;0.60;0.60;;;24.20;57.90;;;;;;5073610;28;20032;-66
2023/07/07 08:48:11;;;;;;;1.55;0.80;;;24.30;57.40;;;;;;5076710;28;20032;-68
2023/07/07 08:51:00;;;;;;;1.15;0.50;;;24.40;57.30;;;;;;5079529;28;20497;-70
2023/07/07 08:53:32;;;;;;;2.47;0.95;;;24.50;57.20;;;;;;5078218;28;20039;-70
2023/07/07 08:56:15;;;;;;;1.67;0.63;;;24.60;56.80;;;;;;5077641;28;20045;-66
2023/07/07 08:59:18;;;;;;;0.45;0.45;;;24.70;56.60;;;;;;5081006;28;20492;-66
2023/07/07 09:01:56;;;;;;;0.80;0.80;;;24.80;56.40;;;;;;5079299;28;20024;-68
2023/07/07 09:04:42;;;;;;;0.57;0.52;;;24.90;55.80;;;;;;5074294;28;20108;-67
2023/07/07 09:07:32;;;;;;;1.02;0.60;;;24.90;54.60;;;;;;5081531;28;20048;-65
2023/07/07 09:10:07;;;;;;;1.13;0.68;;;25.00;55.00;;;;;;5084572;28;20050;-65
2023/07/07 09:12:50;;;;;;;0.95;0.80;;;25.00;53.20;;;;;;5073668;28;20119;-63
2023/07/07 09:15:23;;;;;;;2.67;0.60;;;25.10;53.90;;;;;;5072655;28;20032;-63
2023/07/07 09:17:54;;;;;;;0.65;0.60;;;25.20;53.00;;;;;;5073806;28;20356;-72
2023/07/07 09:20:24;;;;;;;0.90;0.70;;;25.20;52.20;;;;;;5074933;28;20069;-63
2023/07/07 09:22:58;;;;;;;2.25;0.88;;;25.30;51.70;;;;;;5082368;28;20466;-72
2023/07/07 09:25:34;;;;;;;1.02;0.70;;;25.30;51.60;;;;;;5073578;28;20471;-72
2023/07/07 09:28:04;;;;;;;0.98;0.70;;;25.40;52.00;;;;;;5074978;28;20130;-73
2023/07/07 09:30:40;;;;;;;1.95;0.90;;;25.50;52.10;;;;;;5077430;28;20027;-72
2023/07/07 09:33:15;;;;;;;1.48;0.60;;;25.60;51.90;;;;;;5075117;28;20025;-72
2023/07/07 09:36:15;;;;;;;1.77;0.65;;;25.80;51.80;;;;;;5075097;28;20023;-72
2023/07/07 09:39:19;;;;;;;0.68;0.63;;;25.80;51.80;;;;;;5073833;28;20028;-72
2023/07/07 09:42:42;;;;;;;0.50;0.50;;;26.00;52.00;;;;;;5079929;28;20486;-72
2023/07/07 09:46:02;;;;;;;2.40;1.25;;;26.10;51.40;;;;;;5009260;28;20090;-72
2023/07/07 09:48:40;;;;;;;0.77;0.77;;;26.20;51.00;;;;;;4969709;28;20027;-63
2023/07/07 09:51:27;;;;;;;0.45;0.45;;;26.30;50.70;;;;;;5074949;28;20036;-64
2023/07/07 09:53:54;;;;;;;1.08;0.90;;;26.30;50.40;;;;;;5075537;28;20035;-63
2023/07/07 09:56:23;;;;;;;0.57;0.47;;;26.50;50.20;;;;;;5077801;28;20144;-64
2023/07/07 09:59:04;;;;;;;1.00;0.52;;;26.50;50.20;;;;;;5071585;28;20024;-63
2023/07/07 10:02:09;;;;;;;0.77;0.50;;;26.60;49.90;;;;;;5074736;28;20115;-64
2023/07/07 10:04:37;;;;;;;0.80;0.80;;;26.60;49.00;;;;;;5071964;28;20430;-64
2023/07/07 10:07:08;;;;;;;1.15;0.70;;;26.70;48.60;;;;;;5072328;28;20097;-63
2023/07/07 10:09:34;;;;;;;0.73;0.52;;;26.80;48.50;;;;;;5080495;28;20546;-64
2023/07/07 10:12:00;;;;;;;0.82;0.70;;;26.90;48.70;;;;;;5064740;28;20021;-63
2023/07/07 10:14:28;;;;;;;0.75;0.50;;;26.90;48.40;;;;;;5062732;28;20032;-72
2023/07/07 10:17:00;;;;;;;1.02;0.50;;;27.00;47.90;;;;;;5078584;28;20032;-72
2023/07/07 10:19:27;;;;;;;1.45;0.50;;;27.10;47.20;;;;;;5067781;28;20032;-63
2023/07/07 10:21:53;;;;;;;0.73;0.68;;;27.20;47.00;;;;;;5069141;28;20055;-63
2023/07/07 10:24:19;;;;;;;1.75;0.85;;;27.20;46.90;;;;;;5062573;28;20056;-72
2023/07/07 10:26:47;;;;;;;2.03;1.10;;;27.40;47.10;;;;;;5070241;28;20043;-73
2023/07/07 10:29:22;;;;;;;0.52;0.52;;;27.40;46.90;;;;;;5067179;28;20391;-72
2023/07/07 10:31:49;;;;;;;0.43;0.43;;;27.50;46.90;;;;;;5076611;28;20043;-64
2023/07/07 10:34:30;;;;;;;1.35;0.70;;;27.50;45.70;;;;;;5079842;28;20031;-72
2023/07/07 10:36:57;;;;;;;0.50;0.50;;;27.60;46.10;;;;;;5072681;28;20056;-72
2023/07/07 10:39:25;;;;;;;0.93;0.73;;;27.70;46.50;;;;;;5086648;28;20121;-72
2023/07/07 10:41:51;;;;;;;0.50;0.50;;;27.80;46.20;;;;;;5071268;28;20052;-72
2023/07/07 10:44:16;;;;;;;1.35;0.80;;;27.90;45.40;;;;;;5074676;28;20064;-72
2023/07/07 10:46:42;;;;;;;1.08;0.98;;;27.90;44.30;;;;;;5074819;28;20025;-63
2023/07/07 10:49:15;;;;;;;2.55;0.77;;;27.90;43.80;;;;;;5065126;28;20028;-72
2023/07/07 10:52:19;;;;;;;0.80;0.75;;;28.00;44.70;;;;;;5070707;28;20036;-64
2023/07/07 10:55:03;;;;;;;1.20;0.70;;;28.10;43.80;;;;;;5072939;28;20493;-72
2023/07/07 10:57:44;;;;;;;0.82;0.60;;;28.10;43.50;;;;;;5074085;28;20198;-63
2023/07/07 11:00:37;;;;;;;0.60;0.60;;;28.30;43.90;;;;;;5073313;28;20050;-72
2023/07/07 11:03:14;;;;;;;0.47;0.40;;;28.40;43.30;;;;;;5069305;28;20042;-63
2023/07/07 11:05:45;;;;;;;1.92;0.65;;;28.50;44.40;;;;;;5065549;28;20083;-63
2023/07/07 11:08:32;;;;;;;0.85;0.73;;;28.70;43.90;;;;;;5083880;28;20024;-63
2023/07/07 11:11:07;;;;;;;0.88;0.77;;;28.80;43.60;;;;;;5073021;28;20533;-63
2023/07/07 11:13:51;;;;;;;0.80;0.77;;;28.90;43.00;;;;;;5071203;28;20028;-64
2023/07/07 11:16:38;;;;;;;0.45;0.45;;;29.00;42.80;;;;;;5070004;28;20040;-64
2023/07/07 11:19:06;;;;;;;1.08;0.80;;;29.00;42.00;;;;;;5073670;28;20395;-64
2023/07/07 11:21:44;;;;;;;1.10;0.88;;;29.00;41.10;;;;;;5069032;28;20083;-72
2023/07/07 11:24:23;;;;;;;1.48;1.00;;;28.90;41.20;;;;;;5078206;28;20047;-72
2023/07/07 11:27:17;;;;;;;1.23;0.80;;;28.90;42.00;;;;;;5081990;28;20459;-73
2023/07/07 11:29:42;;;;;;;0.50;0.50;;;29.10;42.30;;;;;;5072785;28;20119;-72
2023/07/07 11:32:26;;;;;;;1.10;0.60;;;29.20;42.50;;;;;;5086058;28;20448;-72
2023/07/07 11:35:19;;;;;;;0.80;0.70;;;29.50;42.70;;;;;;5075929;28;20031;-63
2023/07/07 11:38:10;;;;;;;1.00;0.98;;;29.60;41.10;;;;;;5076572;28;20031;-64
2023/07/07 11:41:13;;;;;;;1.27;0.90;;;29.60;40.80;;;;;;5082277;28;20024;-72
2023/07/07 11:43:53;;;;;;;0.70;0.70;;;29.60;40.40;;;;;;5067492;28;20025;-72
2023/07/07 11:46:21;;;;;;;1.98;1.00;;;29.70;40.40;;;;;;5071480;28;20135;-64
2023/07/07 11:49:22;;;;;;;0.80;0.80;;;29.70;40.50;;;;;;5070972;28;20138;-72
2023/07/07 11:52:01;;;;;;;0.80;0.60;;;29.80;40.90;;;;;;5047770;28;20371;-72
2023/07/07 11:54:40;;;;;;;1.95;0.90;;;29.90;40.60;;;;;;5077591;28;20020;-64
2023/07/07 11:57:06;;;;;;;1.77;1.17;;;30.00;40.80;;;;;;5078902;28;20044;-72
2023/07/07 11:59:59;;;;;;;0.80;0.70;;;30.10;40.60;;;;;;5079368;28;20016;-63
2023/07/07 12:02:34;;;;;;;0.50;0.50;;;30.20;40.60;;;;;;5074412;28;20422;-64
2023/07/07 12:05:01;;;;;;;1.75;0.82;;;30.40;40.90;;;;;;5075638;28;20903;-64
2023/07/07 12:07:27;;;;;;;0.82;0.70;;;30.50;41.10;;;;;;5077644;28;20028;-63
2023/07/07 12:09:59;;;;;;;1.15;0.80;;;30.60;41.20;;;;;;5073313;28;20382;-72
2023/07/07 12:12:41;;;;;;;0.65;0.65;;;30.70;40.80;;;;;;5069594;28;20021;-72
2023/07/07 12:15:40;;;;;;;0.88;0.88;;;30.80;40.80;;;;;;5064633;28;20036;-64
2023/07/07 12:18:37;;;;;;;0.80;0.50;;;31.00;40.90;;;;;;5069164;28;20543;-72
2023/07/07 12:21:17;;;;;;;0.85;0.80;;;31.10;40.70;;;;;;5051028;28;20033;-72
2023/07/07 12:24:02;;;;;;;0.60;0.55;;;31.20;40.00;;;;;;5077563;28;20020;-64
2023/07/07 12:26:40;;;;;;;0.60;0.60;;;31.20;40.30;;;;;;5066094;28;20340;-64
2023/07/07 12:29:06;;;;;;;1.13;0.82;;;31.30;40.60;;;;;;5072023;28;20048;-64
2023/07/07 12:31:32;;;;;;;1.77;1.08;;;31.40;40.40;;;;;;5073187;28;20499;-64
2023/07/07 12:34:36;;;;;;;1.00;0.75;;;31.50;40.10;;;;;;5069043;28;20475;-63
2023/07/07 12:37:04;;;;;;;0.65;0.65;;;31.50;39.50;;;;;;5069518;28;20060;-63
2023/07/07 12:39:30;;;;;;;1.38;0.80;;;31.60;39.80;;;;;;5082779;28;20493;-63
2023/07/07 12:41:56;;;;;;;0.60;0.60;;;31.60;39.00;;;;;;5075234;28;20099;-63
2023/07/07 12:44:21;;;;;;;0.52;0.50;;;31.60;39.90;;;;;;5072923;28;20029;-63
2023/07/07 12:46:47;;;;;;;1.95;0.70;;;31.60;39.20;;;;;;5072691;28;20036;-64
2023/07/07 12:49:23;;;;;;;0.60;0.60;;;31.80;39.70;;;;;;5074986;28;20024;-72
2023/07/07 12:52:00;;;;;;;0.75;0.52;;;31.90;39.30;;;;;;5076233;28;20020;-64
2023/07/07 12:54:34;;;;;;;1.10;0.70;;;31.90;39.00;;;;;;5076644;28;20024;-71
2023/07/07 12:57:10;;;;;;;1.60;0.82;;;32.00;38.90;;;;;;5074075;28;20044;-63
2023/07/07 12:59:38;;;;;;;0.70;0.70;;;31.90;38.30;;;;;;5073770;28;20025;-63
2023/07/07 13:02:24;;;;;;;0.70;0.70;;;31.90;37.90;;;;;;5072892;28;20388;-62
2023/07/07 13:05:05;;;;;;;0.98;0.80;;;31.90;37.80;;;;;;5073223;28;20036;-71
2023/07/07 13:07:32;;;;;;;0.60;0.60;;;32.00;38.10;;;;;;5074065;28;20539;-63